createdAt,value
2022-08-28T00:00:01.117Z,101174.38
2022-08-28T00:02:28.612Z,101169.94
2022-08-28T00:04:55.500Z,101172.66
2022-08-28T00:07:22.292Z,101173.50
2022-08-28T00:09:48.983Z,101177.97
2022-08-28T00:12:15.786Z,101178.06
2022-08-28T00:14:42.725Z,101180.69
2022-08-28T00:17:09.597Z,101181.59
2022-08-28T00:19:38.686Z,101178.84
2022-08-28T00:22:06.813Z,101182.22
2022-08-28T00:24:34.312Z,101179.50
2022-08-28T00:27:19.693Z,101184.06
2022-08-28T00:29:46.493Z,101182.34
2022-08-28T00:32:13.820Z,101185.97
2022-08-28T00:34:43.273Z,101192.25
2022-08-28T00:40:32.376Z,101188.59
2022-08-28T00:43:19.076Z,101196.69
2022-08-28T00:47:29.120Z,101194.97
2022-08-28T00:53:36.360Z,101201.25
2022-08-28T01:03:25.207Z,101185.28
2022-08-28T01:14:15.281Z,101202.31
2022-08-28T01:20:53.595Z,101211.25
2022-08-28T01:23:57.897Z,101199.63
2022-08-28T01:26:39.635Z,101197.00
2022-08-28T01:29:15.444Z,101205.91
2022-08-28T01:31:58.455Z,101205.03
2022-08-28T01:34:40.813Z,101197.88
2022-08-28T01:53:25.424Z,101209.50
2022-08-28T01:56:17.007Z,101198.72
2022-08-28T01:59:03.466Z,101196.97
2022-08-28T02:01:35.482Z,101202.34
2022-08-28T02:05:05.997Z,101204.16
2022-08-28T02:08:05.072Z,101204.16
2022-08-28T02:10:42.396Z,101199.69
2022-08-28T02:13:35.590Z,101198.72
2022-08-28T02:16:38.229Z,101206.84
2022-08-28T02:19:23.598Z,101202.38
2022-08-28T02:22:14.003Z,101214.00
2022-08-28T02:25:40.368Z,101216.63
2022-08-28T02:28:43.538Z,101221.97
2022-08-28T02:31:19.417Z,101222.88
2022-08-28T02:34:01.597Z,101219.31
2022-08-28T02:36:43.708Z,101223.78
2022-08-28T02:39:21.814Z,101226.44
2022-08-28T02:42:12.314Z,101221.09
2022-08-28T02:44:53.090Z,101228.22
2022-08-28T02:47:53.811Z,101225.56
2022-08-28T02:50:23.636Z,101225.53
2022-08-28T02:53:04.507Z,101226.44
2022-08-28T02:55:34.229Z,101222.84
2022-08-28T02:58:04.477Z,101210.44
2022-08-28T03:00:35.061Z,101211.31
2022-08-28T03:03:05.708Z,101210.41
2022-08-28T03:05:35.944Z,101212.19
2022-08-28T03:08:09.864Z,101208.63
2022-08-28T03:13:59.735Z,101200.63
2022-08-28T03:19:47.242Z,101215.75
2022-08-28T03:22:16.789Z,101214.84
2022-08-28T03:24:48.664Z,101230.88
2022-08-28T03:27:18.352Z,101228.16
2022-08-28T03:29:53.239Z,101243.31
2022-08-28T03:32:29.258Z,101241.53
2022-08-28T03:34:57.833Z,101245.03
2022-08-28T03:37:25.205Z,101242.44
2022-08-28T03:39:54.764Z,101242.44
2022-08-28T03:42:24.924Z,101243.28
2022-08-28T03:44:52.158Z,101251.28
2022-08-28T03:47:22.574Z,101245.03
2022-08-28T03:49:57.905Z,101241.53
2022-08-28T03:52:25.791Z,101248.66
2022-08-28T03:54:57.655Z,101250.41
2022-08-28T03:57:29.397Z,101249.50
2022-08-28T04:02:44.721Z,101256.63
2022-08-28T04:05:17.513Z,101264.69
2022-08-28T04:07:45.357Z,101269.06
2022-08-28T04:10:18.046Z,101257.50
2022-08-28T04:12:52.362Z,101261.94
2022-08-28T04:15:22.032Z,101261.06
2022-08-28T04:18:16.368Z,101260.19
2022-08-28T04:21:18.224Z,101260.19
2022-08-28T04:23:48.093Z,101267.34
2022-08-28T04:26:41.882Z,101264.66
2022-08-28T04:29:27.530Z,101272.63
2022-08-28T04:31:58.438Z,101280.63
2022-08-28T04:34:25.773Z,101278.00
2022-08-28T04:36:53.220Z,101285.09
2022-08-28T04:39:20.485Z,101285.97
2022-08-28T04:41:47.478Z,101277.13
2022-08-28T04:44:28.424Z,101286.03
2022-08-28T05:04:41.439Z,101297.53
2022-08-28T05:08:01.450Z,101291.34
2022-08-28T05:25:01.562Z,101314.41
2022-08-28T05:27:30.856Z,101314.47
2022-08-28T05:30:21.258Z,101318.94
2022-08-28T05:32:50.639Z,101316.31
2022-08-28T05:35:20.143Z,101323.38
2022-08-28T05:37:57.654Z,101324.28
2022-08-28T05:41:35.472Z,101326.97
2022-08-28T05:43:26.359Z,101326.06
2022-08-28T05:46:05.982Z,101326.97
2022-08-28T05:48:49.454Z,101319.84
2022-08-28T05:51:28.326Z,101324.19
2022-08-28T05:54:43.113Z,101326.94
2022-08-28T05:57:46.235Z,101328.69
2022-08-28T06:00:42.874Z,101334.06
2022-08-28T06:03:09.941Z,101331.34
2022-08-28T06:05:39.758Z,101333.16
2022-08-28T06:08:06.860Z,101334.91
2022-08-28T06:10:45.920Z,101342.03
2022-08-28T06:13:23.159Z,101351.84
2022-08-28T06:15:58.201Z,101341.19
2022-08-28T06:18:34.866Z,101341.31
2022-08-28T06:21:06.508Z,101343.97
2022-08-28T06:23:56.991Z,101347.53
2022-08-28T06:26:58.118Z,101343.06
2022-08-28T06:29:35.741Z,101340.44
2022-08-28T06:32:10.546Z,101348.38
2022-08-28T06:35:12.051Z,101351.03
2022-08-28T06:57:07.759Z,101362.75
2022-08-28T06:59:51.084Z,101367.22
2022-08-28T07:09:41.725Z,101364.50
2022-08-28T07:12:25.815Z,101375.22
2022-08-28T07:14:59.160Z,101368.09
2022-08-28T07:17:41.729Z,101374.31
2022-08-28T07:20:40.805Z,101387.69
2022-08-28T07:24:07.079Z,101373.47
2022-08-28T07:27:06.742Z,101377.91
2022-08-28T07:29:46.184Z,101393.03
2022-08-28T07:36:33.987Z,101386.81
2022-08-28T07:47:36.341Z,101386.81
2022-08-28T07:50:03.781Z,101388.59
2022-08-28T07:52:36.593Z,101398.38
2022-08-28T07:55:30.393Z,101393.94
2022-08-28T07:58:14.984Z,101388.59
2022-08-28T08:03:38.662Z,101396.56
2022-08-28T08:06:08.462Z,101400.16
2022-08-28T08:08:43.370Z,101401.03
2022-08-28T08:11:49.098Z,101401.06
2022-08-28T08:14:17.119Z,101392.06
2022-08-28T08:17:29.436Z,101390.28
2022-08-28T08:20:11.505Z,101403.63
2022-08-28T08:23:16.727Z,101405.47
2022-08-28T08:26:38.054Z,101403.72
2022-08-28T08:33:01.682Z,101405.44
2022-08-28T08:33:04.705Z,101407.19
2022-08-28T08:36:21.474Z,101410.78
2022-08-28T08:42:45.078Z,101407.06
2022-08-28T08:45:35.449Z,101403.44
2022-08-28T08:48:34.495Z,101405.22
2022-08-28T08:52:13.788Z,101410.69
2022-08-28T08:55:11.896Z,101413.34
2022-08-28T08:59:00.917Z,101409.75
2022-08-28T09:20:16.644Z,101416.84
2022-08-28T09:24:17.848Z,101413.28
2022-08-28T09:26:42.411Z,101415.00
2022-08-28T09:47:12.591Z,101422.91
2022-08-28T09:49:42.786Z,101419.41
2022-08-28T09:52:44.989Z,101414.03
2022-08-28T09:56:06.026Z,101413.88
2022-08-28T09:59:25.175Z,101415.53
2022-08-28T10:02:11.930Z,101412.91
2022-08-28T10:05:45.383Z,101419.06
2022-08-28T10:08:27.035Z,101414.59
2022-08-28T10:10:56.075Z,101413.78
2022-08-28T10:13:35.087Z,101406.56
2022-08-28T10:20:14.562Z,101405.81
2022-08-28T10:23:17.760Z,101412.06
2022-08-28T10:30:35.264Z,101398.81
2022-08-28T10:33:43.396Z,101401.28
2022-08-28T10:40:22.110Z,101395.88
2022-08-28T10:57:58.093Z,101400.03
2022-08-28T11:00:28.254Z,101409.78
2022-08-28T11:03:33.556Z,101405.16
2022-08-28T11:06:44.087Z,101409.06
2022-08-28T11:10:18.073Z,101407.16
2022-08-28T11:12:59.924Z,101399.91
2022-08-28T11:15:36.432Z,101408.13
2022-08-28T11:22:27.080Z,101427.56
2022-08-28T11:25:07.667Z,101419.34
2022-08-28T11:27:40.086Z,101403.56
2022-08-28T11:30:09.729Z,101406.94
2022-08-28T11:33:15.055Z,101414.03
2022-08-28T11:36:21.701Z,101405.97
2022-08-28T11:38:55.748Z,101438.97
2022-08-28T11:53:54.179Z,101430.94
2022-08-28T13:52:09.536Z,101343.03
2022-08-28T13:58:42.963Z,101336.53
2022-08-28T14:01:30.588Z,101331.06
2022-08-28T14:04:43.307Z,101341.13
2022-08-28T14:18:02.486Z,101332.00
2022-08-28T14:20:37.428Z,101321.88
2022-08-28T14:23:08.768Z,101307.59
2022-08-28T14:25:47.792Z,101311.31
2022-08-28T14:28:46.938Z,101313.25
2022-08-28T14:31:35.254Z,101326.50
2022-08-28T14:34:05.141Z,101316.78
2022-08-28T14:36:39.973Z,101313.81
2022-08-28T14:39:12.830Z,101309.44
2022-08-28T14:41:46.134Z,101307.22
2022-08-28T14:44:26.125Z,101307.53
2022-08-28T14:46:59.408Z,101305.59
2022-08-28T14:49:28.392Z,101307.38
2022-08-28T14:51:56.995Z,101308.38
2022-08-28T14:54:24.883Z,101319.91
2022-08-28T14:56:54.791Z,101308.59
2022-08-28T15:00:00.383Z,101302.00
2022-08-28T15:03:09.142Z,101293.66
2022-08-28T15:05:42.304Z,101292.50
2022-08-28T15:08:14.452Z,101295.09
2022-08-28T15:11:24.229Z,101325.66
2022-08-28T15:14:08.899Z,101306.69
2022-08-28T15:16:46.910Z,101328.34
2022-08-28T15:19:17.809Z,101315.91
2022-08-28T15:21:51.230Z,101315.09
2022-08-28T15:24:21.564Z,101327.28
2022-08-28T15:26:48.503Z,101314.66
2022-08-28T15:29:16.561Z,101315.59
2022-08-28T15:31:47.024Z,101318.16
2022-08-28T15:34:19.760Z,101301.25
2022-08-28T15:36:55.881Z,101299.63
2022-08-28T15:43:27.925Z,101315.31
2022-08-28T15:46:01.022Z,101302.63
2022-08-28T15:48:32.917Z,101306.38
2022-08-28T15:51:03.571Z,101302.19
2022-08-28T15:53:34.482Z,101304.56
2022-08-28T15:56:11.018Z,101296.75
2022-08-28T15:58:38.478Z,101290.09
2022-08-28T16:01:20.590Z,101299.84
2022-08-28T16:04:26.682Z,101302.00
2022-08-28T16:07:00.377Z,101287.00
2022-08-28T16:09:27.758Z,101301.25
2022-08-28T16:12:20.577Z,101296.56
2022-08-28T16:15:23.827Z,101296.59
2022-08-28T16:21:26.832Z,101288.38
2022-08-28T16:23:55.702Z,101298.84
2022-08-28T16:26:23.319Z,101300.66
2022-08-28T16:28:52.895Z,101295.94
2022-08-28T16:31:21.841Z,101304.38
2022-08-28T16:33:49.872Z,101296.69
2022-08-28T16:36:18.557Z,101303.81
2022-08-28T16:38:59.633Z,101311.53
2022-08-28T16:41:28.865Z,101303.63
2022-08-28T16:43:59.280Z,101298.09
2022-08-28T16:46:37.311Z,101297.81
2022-08-28T16:49:13.508Z,101299.69
2022-08-28T16:51:44.847Z,101294.50
2022-08-28T16:54:11.893Z,101296.06
2022-08-28T16:56:39.787Z,101294.97
2022-08-28T16:59:10.420Z,101299.69
2022-08-28T17:01:42.635Z,101302.53
2022-08-28T17:04:10.557Z,101296.00
2022-08-28T17:06:37.669Z,101298.88
2022-08-28T17:09:07.874Z,101297.53
2022-08-28T17:11:35.300Z,101301.72
2022-08-28T17:14:08.091Z,101289.50
2022-08-28T17:17:13.026Z,101294.81
2022-08-28T17:20:33.239Z,101295.41
2022-08-28T17:23:09.621Z,101324.56
2022-08-28T17:26:13.451Z,101303.78
2022-08-28T17:28:41.860Z,101321.16
2022-08-28T17:35:40.332Z,101316.00
2022-08-28T17:38:17.198Z,101304.25
2022-08-28T17:44:43.577Z,101307.44
2022-08-28T17:47:31.003Z,101323.81
2022-08-28T17:50:06.165Z,101310.13
2022-08-28T18:11:36.916Z,101338.03
2022-08-28T18:14:12.276Z,101339.47
2022-08-28T18:16:39.492Z,101331.50
2022-08-28T18:19:08.852Z,101330.41
2022-08-28T18:21:37.378Z,101331.50
2022-08-28T18:24:05.125Z,101328.00
2022-08-28T18:26:32.581Z,101338.13
2022-08-28T18:29:08.349Z,101335.47
2022-08-28T18:31:38.870Z,101346.19
2022-08-28T18:34:10.982Z,101351.75
2022-08-28T18:36:45.244Z,101368.94
2022-08-28T18:39:15.314Z,101349.38
2022-08-28T18:41:58.795Z,101360.22
2022-08-28T18:44:25.884Z,101360.38
2022-08-28T18:46:55.448Z,101366.47
2022-08-28T18:49:23.085Z,101363.63
2022-08-28T18:51:50.770Z,101368.34
2022-08-28T18:54:19.068Z,101369.50
2022-08-28T18:56:48.745Z,101371.28
2022-08-28T18:59:19.911Z,101389.22
2022-08-28T19:01:47.168Z,101378.31
2022-08-28T19:04:14.135Z,101387.22
2022-08-28T19:06:44.445Z,101380.03
2022-08-28T19:09:19.166Z,101390.94
2022-08-28T19:11:49.077Z,101389.03
2022-08-28T19:14:15.985Z,101399.69
2022-08-28T19:16:45.917Z,101394.69
2022-08-28T19:19:19.330Z,101397.50
2022-08-28T19:21:46.742Z,101401.09
2022-08-28T19:24:46.363Z,101395.78
2022-08-28T19:27:13.917Z,101409.28
2022-08-28T19:29:40.803Z,101404.88
2022-08-28T19:32:08.197Z,101415.47
2022-08-28T19:34:35.074Z,101409.28
2022-08-28T19:37:02.013Z,101404.88
2022-08-28T19:40:06.505Z,101420.97
2022-08-28T19:42:39.469Z,101416.47
2022-08-28T19:45:08.895Z,101418.28
2022-08-28T19:47:41.236Z,101413.78
2022-08-28T19:50:14.647Z,101427.25
2022-08-28T19:52:43.188Z,101440.66
2022-08-28T19:55:18.855Z,101431.78
2022-08-28T20:07:20.702Z,101436.31
2022-08-28T20:10:35.416Z,101431.78
2022-08-28T20:13:03.039Z,101429.97
2022-08-28T20:15:44.531Z,101440.91
2022-08-28T20:18:14.302Z,101431.94
2022-08-28T20:32:42.744Z,101451.56
2022-08-28T20:35:52.406Z,101455.19
2022-08-28T20:38:54.609Z,101462.31
2022-08-28T20:45:38.148Z,101466.00
2022-08-28T20:48:33.145Z,101471.34
2022-08-28T20:51:56.457Z,101468.78
2022-08-28T20:54:46.246Z,101474.09
2022-08-28T21:00:38.321Z,101474.97
2022-08-28T21:06:28.609Z,101484.88
2022-08-28T21:09:11.957Z,101482.19
2022-08-28T21:12:05.557Z,101475.13
2022-08-28T21:14:37.286Z,101500.09
2022-08-28T21:17:22.621Z,101487.59
2022-08-28T21:20:49.596Z,101491.16
2022-08-28T21:23:27.013Z,101498.31
2022-08-28T21:26:11.213Z,101500.09
2022-08-28T21:28:38.613Z,101496.53
2022-08-28T21:31:13.712Z,101504.56
2022-08-28T21:33:41.906Z,101501.00
2022-08-28T21:36:10.336Z,101506.34
2022-08-28T21:38:37.588Z,101504.56
2022-08-28T21:41:05.814Z,101505.44
2022-08-28T21:43:32.877Z,101511.66
2022-08-28T21:46:03.629Z,101512.59
2022-08-28T21:48:41.467Z,101513.44
2022-08-28T21:51:12.546Z,101508.09
2022-08-28T21:53:41.927Z,101509.88
2022-08-28T21:56:08.851Z,101517.94
2022-08-28T21:58:37.117Z,101511.69
2022-08-28T22:01:08.292Z,101514.38
2022-08-28T22:03:35.261Z,101522.34
2022-08-28T22:06:02.322Z,101514.34
2022-08-28T22:08:37.043Z,101513.47
2022-08-28T22:11:03.868Z,101508.06
2022-08-28T22:13:30.666Z,101506.31
2022-08-28T22:15:57.502Z,101502.72
2022-08-28T22:18:24.390Z,101515.13
2022-08-28T22:21:20.523Z,101514.22
2022-08-28T22:23:50.187Z,101511.53
2022-08-28T22:26:20.894Z,101518.69
2022-08-28T22:28:51.333Z,101513.34
2022-08-28T22:31:19.484Z,101511.59
2022-08-28T22:33:46.570Z,101512.47
2022-08-28T22:36:16.022Z,101520.50
2022-08-28T22:38:49.785Z,101515.09
2022-08-28T22:41:20.298Z,101518.66
2022-08-28T22:43:49.741Z,101514.22
2022-08-28T22:46:17.415Z,101511.56
2022-08-28T22:48:45.306Z,101516.03
2022-08-28T22:51:14.618Z,101514.16
2022-08-28T22:53:44.574Z,101508.78
2022-08-28T22:56:12.811Z,101514.13
2022-08-28T22:58:40.220Z,101509.72
2022-08-28T23:01:16.028Z,101510.59
2022-08-28T23:03:44.168Z,101515.84
2022-08-28T23:06:13.790Z,101500.72
2022-08-28T23:08:48.518Z,101499.81
2022-08-28T23:20:47.237Z,101516.63
2022-08-28T23:33:41.179Z,101515.72
2022-08-28T23:36:08.407Z,101518.38
2022-08-28T23:38:43.196Z,101511.25
2022-08-28T23:41:16.616Z,101496.16
2022-08-28T23:43:44.344Z,101493.50
2022-08-28T23:46:18.404Z,101490.81
2022-08-28T23:49:01.334Z,101492.56
2022-08-28T23:51:29.118Z,101505.88
2022-08-28T23:54:00.571Z,101499.56
2022-08-28T23:56:39.217Z,101502.22
2022-08-28T23:59:06.964Z,101505.72
